MSC Mandraki — SZUH — position and weather

sailwx.info

Track history (hours):
 
Tides and Currents Weather Stations Pressure Air Temp Water Temp Dewpoint Dewpoint Depression Visibility Wind Speed Wind Dir Waves Ship Positions

MSC Mandraki

Last reported at 2017-Mar-30 06:32 UTC. Time now 2017-Mar-30 07:01 UTC.
Position N 49°28' E 000°08'.

Length 294 m; draft 13.1 m.

Type: Ship. MMSI: 240265000.

Date/timePositionNaut miles runAvg speedWind from/ knotsBaromVisibWave heightAir tempDewpointWater temp
2017-Mar-30 06:32N 49°28' E 000°08'0 0.0
2017-Mar-30 05:32N 49°28' E 000°08'0 0.0
2017-Mar-30 04:32N 49°28' E 000°08'0 0.0
2017-Mar-30 03:32N 49°28' E 000°08'0 0.0
2017-Mar-30 02:32N 49°28' E 000°08'0 0.0
2017-Mar-30 01:32N 49°28' E 000°08'0 0.0
2017-Mar-30 00:32N 49°28' E 000°08'0 0.0
2017-Mar-29 23:32N 49°28' E 000°08'0 0.0
2017-Mar-29 22:32N 49°28' E 000°08'0 0.0
2017-Mar-29 21:32N 49°28' E 000°08'0 0.0
2017-Mar-29 20:32N 49°28' E 000°08'0 0.0
2017-Mar-29 19:32N 49°28' E 000°08'0 0.0
2017-Mar-29 18:32N 49°28' E 000°08'0 0.0
2017-Mar-29 17:32N 49°28' E 000°08'0 0.0
2017-Mar-29 16:32N 49°28' E 000°08'0 0.0
2017-Mar-29 15:32N 49°28' E 000°08'0 0.0
2017-Mar-29 14:32N 49°28' E 000°08'0 0.0
2017-Mar-29 13:32N 49°28' E 000°08'0 0.0
2017-Mar-29 12:32N 49°28' E 000°08'0 0.1
2017-Mar-29 11:34N 49°28' E 000°08'8 8.4
2017-Mar-29 10:34N 49°31' W 000°04'6 6.4
2017-Mar-29 09:34N 49°33' W 000°13'4 3.6
2017-Mar-29 08:31N 49°37' W 000°16'0 0.1
2017-Mar-29 07:31N 49°36' W 000°16'0 0.2
2017-Mar-29 06:31N 49°36' W 000°16'0 0.1
2017-Mar-29 05:31N 49°37' W 000°17'0 0.0
2017-Mar-29 04:31N 49°37' W 000°17'0 0.0
2017-Mar-29 03:31N 49°37' W 000°17'0 0.0
2017-Mar-29 02:31N 49°37' W 000°17'0 0.0
2017-Mar-29 01:31N 49°37' W 000°17'0 0.1
2017-Mar-29 00:31N 49°37' W 000°16'0 0.2
2017-Mar-28 23:31N 49°37' W 000°16'0 0.1
2017-Mar-28 22:31N 49°37' W 000°16'0 0.0
2017-Mar-28 21:31N 49°37' W 000°16'0 0.0
2017-Mar-28 20:31N 49°37' W 000°16'0 0.1
2017-Mar-28 19:31N 49°36' W 000°16'0 0.0
2017-Mar-28 18:31N 49°36' W 000°16'0 0.2
2017-Mar-28 17:31N 49°36' W 000°16'0 0.0
2017-Mar-28 16:31N 49°36' W 000°17'0 0.0
2017-Mar-28 15:31N 49°36' W 000°17'0 0.0
2017-Mar-28 14:31N 49°37' W 000°17'0 0.0
2017-Mar-28 13:31N 49°37' W 000°17'0 0.1
2017-Mar-28 12:31N 49°37' W 000°16'0 0.2
2017-Mar-28 11:31N 49°37' W 000°16'0 0.1
2017-Mar-28 10:31N 49°37' W 000°16'0 0.0
2017-Mar-28 09:31N 49°37' W 000°16'0 0.0
2017-Mar-28 08:31N 49°37' W 000°16'0 0.1
2017-Mar-28 07:31N 49°36' W 000°16'0 0.0
2017-Mar-28 06:31N 49°36' W 000°16'0 0.2
2017-Mar-28 05:31N 49°36' W 000°16'0 0.0
2017-Mar-28 04:31N 49°36' W 000°16'0 0.0
2017-Mar-28 03:31N 49°37' W 000°16'0 0.0
2017-Mar-28 02:31N 49°37' W 000°16'0 0.0
2017-Mar-28 01:31N 49°37' W 000°16'0 0.0
2017-Mar-28 00:31N 49°37' W 000°16'0 0.2
2017-Mar-27 23:31N 49°37' W 000°16'0 0.2
2017-Mar-27 22:31N 49°37' W 000°16'0 0.1
2017-Mar-27 21:31N 49°37' W 000°16'0 0.1
2017-Mar-27 20:31N 49°37' W 000°16'0 0.1
2017-Mar-27 19:31N 49°37' W 000°16'0 0.1
2017-Mar-27 18:22N 49°36' W 000°16'0 0.2
2017-Mar-27 17:31N 49°36' W 000°16'0 0.1
2017-Mar-27 16:31N 49°37' W 000°17'0 0.0
2017-Mar-27 15:31N 49°37' W 000°17'0 0.0
2017-Mar-27 14:31N 49°37' W 000°17'0 0.0
2017-Mar-27 13:31N 49°37' W 000°17'0 0.0
2017-Mar-27 12:31N 49°37' W 000°17'0 0.1
2017-Mar-27 11:31N 49°37' W 000°17'0 0.3
2017-Mar-27 10:31N 49°37' W 000°16'0 0.1
2017-Mar-27 09:31N 49°37' W 000°16'0 0.0
2017-Mar-27 08:31N 49°37' W 000°16'0 0.0
2017-Mar-27 07:31N 49°37' W 000°16'0 0.1
2017-Mar-27 06:31N 49°37' W 000°16'0 0.1
2017-Mar-27 05:31N 49°36' W 000°16'0 0.2
2017-Mar-27 04:31N 49°37' W 000°17'0 0.0
2017-Mar-27 03:31N 49°37' W 000°17'0 0.0
2017-Mar-27 02:31N 49°37' W 000°17'0 0.0
2017-Mar-27 01:31N 49°37' W 000°17'0 0.0
2017-Mar-27 00:31N 49°37' W 000°17'0 0.0
2017-Mar-26 23:31N 49°37' W 000°17'0 0.1
2017-Mar-26 22:31N 49°36' W 000°16'0 0.2
2017-Mar-26 21:31N 49°37' W 000°16'0 0.0
2017-Mar-26 20:31N 49°37' W 000°16'0 0.0
2017-Mar-26 19:31N 49°37' W 000°16'0 0.1
2017-Mar-26 18:31N 49°37' W 000°16'0 0.2
2017-Mar-26 17:28N 49°36' W 000°16'1 0.9
2017-Mar-26 16:33N 49°36' W 000°17'1211.6
2017-Mar-26 15:34N 49°47' W 000°24'1817.7
2017-Mar-26 14:34N 50°04' W 000°17'1918.5
2017-Mar-26 13:34N 50°22' W 000°07'1717.4
2017-Mar-26 12:33N 50°31' E 000°15'1818.3
2017-Mar-26 11:33N 50°39' E 000°42'1717.4
2017-Mar-26 10:33N 50°50' E 001°03'1716.4
2017-Mar-26 09:31N 51°02' E 001°23'1717.5
2017-Mar-26 08:33N 51°12' E 001°43'1919.2
2017-Mar-26 07:34N 51°29' E 001°59'2020.1
2017-Mar-26 06:33N 51°43' E 002°21'2120.1
2017-Mar-26 05:32N 51°59' E 002°43'2219.1
2017-Mar-26 04:22N 52°16' E 003°05'1518.3
2017-Mar-26 03:31N 52°29' E 003°21'1717.8
2017-Mar-26 02:33N 52°42' E 003°38'1717.5
2017-Mar-26 01:34N 52°56' E 003°55'1818.2
2017-Mar-26 00:33N 53°08' E 004°19'1918.9
2017-Mar-25 23:34N 53°25' E 004°33'1919.4
2017-Mar-25 22:34N 53°43' E 004°43'1919.1
2017-Mar-25 21:34N 54°01' E 004°55'25917.3
2017-Mar-25 06:33N 57°39' E 009°03'1818.3
2017-Mar-25 05:33N 57°47' E 009°34'1817.8
2017-Mar-25 04:33N 57°53' E 010°06'1817.7
2017-Mar-25 03:33N 57°53' E 010°39'1717.3
2017-Mar-25 02:34N 57°40' E 011°01'1817.7
2017-Mar-25 01:34N 57°28' E 011°25'1818.0
2017-Mar-25 00:33N 57°11' E 011°36'1918.3
2017-Mar-24 23:30N 56°53' E 011°50'3916.6
2017-Mar-24 21:09N 56°22' E 011°09'813.2
2017-Mar-24 20:33N 56°14' E 011°06'1817.6
2017-Mar-24 19:31N 55°56' E 010°59'3113.8
2017-Mar-24 17:15N 55°25' E 010°60'1217.8
2017-Mar-24 16:33N 55°13' E 011°06'1716.8
2017-Mar-24 15:34N 54°57' E 010°55'1716.5
2017-Mar-24 14:33N 54°41' E 010°46'1615.9
2017-Mar-24 13:34N 54°36' E 011°12'1818.3
2017-Mar-24 12:34N 54°28' E 011°40'1817.3
2017-Mar-24 11:30N 54°27' E 012°12'1414.7
2017-Mar-24 10:33N 54°39' E 012°24'1312.2
2017-Mar-24 09:27N 54°47' E 012°44'1617.4
2017-Mar-24 08:32N 54°53' E 013°10'1818.5
2017-Mar-24 07:33N 54°59' E 013°39'1818.2
2017-Mar-24 06:33N 55°08' E 014°07'1918.6
2017-Mar-24 05:33N 55°22' E 014°28'1818.1
2017-Mar-24 04:33N 55°32' E 014°54'1818.4
2017-Mar-24 03:33N 55°40' E 015°24'1918.6
2017-Mar-24 02:33N 55°44' E 015°56'1918.7
2017-Mar-24 01:34N 55°48' E 016°28'1818.4
2017-Mar-24 00:33N 55°53' E 017°00'1818.4
2017-Mar-23 23:33N 55°57' E 017°32'83 1.9
2017-Mar-22 03:04N 55°11' E 019°33'1019.1
2017-Mar-22 02:33N 55°03' E 019°24'1919.1
2017-Mar-22 01:33N 54°48' E 019°04'1918.6
2017-Mar-22 00:33N 54°32' E 018°48'10 9.7
2017-Mar-21 23:33N 54°33' E 018°31'0 0.0
2017-Mar-21 22:31N 54°33' E 018°31'0 0.0
2017-Mar-21 21:31N 54°33' E 018°31'0 0.0
2017-Mar-21 20:31N 54°33' E 018°31'0 0.0
2017-Mar-21 19:31N 54°33' E 018°31'0 0.0
2017-Mar-21 18:31N 54°33' E 018°31'0 0.0
2017-Mar-21 17:31N 54°33' E 018°31'0 0.0
2017-Mar-21 16:31N 54°33' E 018°31'0 0.0
2017-Mar-21 15:31N 54°33' E 018°31'0 0.0
2017-Mar-21 14:31N 54°33' E 018°31'0 0.0
2017-Mar-21 13:31N 54°33' E 018°31'0 0.0
2017-Mar-21 12:31N 54°33' E 018°31'0 0.0
2017-Mar-21 11:31N 54°33' E 018°31'0 0.0
2017-Mar-21 10:31N 54°33' E 018°31'0 0.0
2017-Mar-21 09:31N 54°33' E 018°31'0 0.0
2017-Mar-21 08:31N 54°33' E 018°31'0 0.0
2017-Mar-21 07:31N 54°33' E 018°31'0 0.0
2017-Mar-21 06:31N 54°33' E 018°31'0 0.0
2017-Mar-21 05:31N 54°33' E 018°31'0 0.0
2017-Mar-21 04:31N 54°33' E 018°31'0 0.0
2017-Mar-21 03:31N 54°33' E 018°31'0 0.0
2017-Mar-21 02:31N 54°33' E 018°31'0 0.0
2017-Mar-21 01:31N 54°33' E 018°31'0 0.0
2017-Mar-21 00:31N 54°33' E 018°31'0 0.0
2017-Mar-20 23:31N 54°33' E 018°31'0 0.0
2017-Mar-20 22:31N 54°33' E 018°31'0 0.0
2017-Mar-20 21:31N 54°33' E 018°31'0 0.0
2017-Mar-20 20:31N 54°33' E 018°31'0 0.0
2017-Mar-20 19:31N 54°33' E 018°31'0 0.0
2017-Mar-20 18:31N 54°33' E 018°31'0 0.0
2017-Mar-20 17:31N 54°33' E 018°31'0 0.0
2017-Mar-20 16:31N 54°33' E 018°31'0 0.0
2017-Mar-20 15:31N 54°33' E 018°31'0 0.0
2017-Mar-20 14:31N 54°33' E 018°31'0 0.0
2017-Mar-20 13:31N 54°33' E 018°31'0 0.0
2017-Mar-20 12:31N 54°33' E 018°31'0 0.0
2017-Mar-20 11:31N 54°33' E 018°31'0 0.0
2017-Mar-20 10:28N 54°33' E 018°31'0 0.0
2017-Mar-20 09:31N 54°33' E 018°31'0 0.0
2017-Mar-20 08:31N 54°33' E 018°31'0 0.0
2017-Mar-20 07:31N 54°33' E 018°31'  
Track history (hours):
 
Tides and Currents Weather Stations Pressure Air Temp Water Temp Dewpoint Dewpoint Depression Visibility Wind Speed Wind Dir Waves Ship Positions

MSC Mandraki

Last reported at 2017-Mar-30 06:32 UTC. Time now 2017-Mar-30 07:01 UTC.
Position N 49°28' E 000°08'.

Length 294 m; draft 13.1 m.

Type: Ship. MMSI: 240265000.

Date/timePositionNaut miles runAvg speedWind from/ knotsBaromVisibWave heightAir tempDewpointWater temp
2017-Mar-30 06:32N 49°28' E 000°08'0 0.0
2017-Mar-30 05:32N 49°28' E 000°08'0 0.0
2017-Mar-30 04:32N 49°28' E 000°08'0 0.0
2017-Mar-30 03:32N 49°28' E 000°08'0 0.0
2017-Mar-30 02:32N 49°28' E 000°08'0 0.0
2017-Mar-30 01:32N 49°28' E 000°08'0 0.0
2017-Mar-30 00:32N 49°28' E 000°08'0 0.0
2017-Mar-29 23:32N 49°28' E 000°08'0 0.0
2017-Mar-29 22:32N 49°28' E 000°08'0 0.0
2017-Mar-29 21:32N 49°28' E 000°08'0 0.0
2017-Mar-29 20:32N 49°28' E 000°08'0 0.0
2017-Mar-29 19:32N 49°28' E 000°08'0 0.0
2017-Mar-29 18:32N 49°28' E 000°08'0 0.0
2017-Mar-29 17:32N 49°28' E 000°08'0 0.0
2017-Mar-29 16:32N 49°28' E 000°08'0 0.0
2017-Mar-29 15:32N 49°28' E 000°08'0 0.0
2017-Mar-29 14:32N 49°28' E 000°08'0 0.0
2017-Mar-29 13:32N 49°28' E 000°08'0 0.0
2017-Mar-29 12:32N 49°28' E 000°08'0 0.1
2017-Mar-29 11:34N 49°28' E 000°08'8 8.4
2017-Mar-29 10:34N 49°31' W 000°04'6 6.4
2017-Mar-29 09:34N 49°33' W 000°13'4 3.6
2017-Mar-29 08:31N 49°37' W 000°16'0 0.1
2017-Mar-29 07:31N 49°36' W 000°16'0 0.2
2017-Mar-29 06:31N 49°36' W 000°16'0 0.1
2017-Mar-29 05:31N 49°37' W 000°17'0 0.0
2017-Mar-29 04:31N 49°37' W 000°17'0 0.0
2017-Mar-29 03:31N 49°37' W 000°17'0 0.0
2017-Mar-29 02:31N 49°37' W 000°17'0 0.0
2017-Mar-29 01:31N 49°37' W 000°17'0 0.1
2017-Mar-29 00:31N 49°37' W 000°16'0 0.2
2017-Mar-28 23:31N 49°37' W 000°16'0 0.1
2017-Mar-28 22:31N 49°37' W 000°16'0 0.0
2017-Mar-28 21:31N 49°37' W 000°16'0 0.0
2017-Mar-28 20:31N 49°37' W 000°16'0 0.1
2017-Mar-28 19:31N 49°36' W 000°16'0 0.0
2017-Mar-28 18:31N 49°36' W 000°16'0 0.2
2017-Mar-28 17:31N 49°36' W 000°16'0 0.0
2017-Mar-28 16:31N 49°36' W 000°17'0 0.0
2017-Mar-28 15:31N 49°36' W 000°17'0 0.0
2017-Mar-28 14:31N 49°37' W 000°17'0 0.0
2017-Mar-28 13:31N 49°37' W 000°17'0 0.1
2017-Mar-28 12:31N 49°37' W 000°16'0 0.2
2017-Mar-28 11:31N 49°37' W 000°16'0 0.1
2017-Mar-28 10:31N 49°37' W 000°16'0 0.0
2017-Mar-28 09:31N 49°37' W 000°16'0 0.0
2017-Mar-28 08:31N 49°37' W 000°16'0 0.1
2017-Mar-28 07:31N 49°36' W 000°16'0 0.0
2017-Mar-28 06:31N 49°36' W 000°16'0 0.2
2017-Mar-28 05:31N 49°36' W 000°16'0 0.0
2017-Mar-28 04:31N 49°36' W 000°16'0 0.0
2017-Mar-28 03:31N 49°37' W 000°16'0 0.0
2017-Mar-28 02:31N 49°37' W 000°16'0 0.0
2017-Mar-28 01:31N 49°37' W 000°16'0 0.0
2017-Mar-28 00:31N 49°37' W 000°16'0 0.2
2017-Mar-27 23:31N 49°37' W 000°16'0 0.2
2017-Mar-27 22:31N 49°37' W 000°16'0 0.1
2017-Mar-27 21:31N 49°37' W 000°16'0 0.1
2017-Mar-27 20:31N 49°37' W 000°16'0 0.1
2017-Mar-27 19:31N 49°37' W 000°16'0 0.1
2017-Mar-27 18:22N 49°36' W 000°16'0 0.2
2017-Mar-27 17:31N 49°36' W 000°16'0 0.1
2017-Mar-27 16:31N 49°37' W 000°17'0 0.0
2017-Mar-27 15:31N 49°37' W 000°17'0 0.0
2017-Mar-27 14:31N 49°37' W 000°17'0 0.0
2017-Mar-27 13:31N 49°37' W 000°17'0 0.0
2017-Mar-27 12:31N 49°37' W 000°17'0 0.1
2017-Mar-27 11:31N 49°37' W 000°17'0 0.3
2017-Mar-27 10:31N 49°37' W 000°16'0 0.1
2017-Mar-27 09:31N 49°37' W 000°16'0 0.0
2017-Mar-27 08:31N 49°37' W 000°16'0 0.0
2017-Mar-27 07:31N 49°37' W 000°16'0 0.1
2017-Mar-27 06:31N 49°37' W 000°16'0 0.1
2017-Mar-27 05:31N 49°36' W 000°16'0 0.2
2017-Mar-27 04:31N 49°37' W 000°17'0 0.0
2017-Mar-27 03:31N 49°37' W 000°17'0 0.0
2017-Mar-27 02:31N 49°37' W 000°17'0 0.0
2017-Mar-27 01:31N 49°37' W 000°17'0 0.0
2017-Mar-27 00:31N 49°37' W 000°17'0 0.0
2017-Mar-26 23:31N 49°37' W 000°17'0 0.1
2017-Mar-26 22:31N 49°36' W 000°16'0 0.2
2017-Mar-26 21:31N 49°37' W 000°16'0 0.0
2017-Mar-26 20:31N 49°37' W 000°16'0 0.0
2017-Mar-26 19:31N 49°37' W 000°16'0 0.1
2017-Mar-26 18:31N 49°37' W 000°16'0 0.2
2017-Mar-26 17:28N 49°36' W 000°16'1 0.9
2017-Mar-26 16:33N 49°36' W 000°17'1211.6
2017-Mar-26 15:34N 49°47' W 000°24'1817.7
2017-Mar-26 14:34N 50°04' W 000°17'1918.5
2017-Mar-26 13:34N 50°22' W 000°07'1717.4
2017-Mar-26 12:33N 50°31' E 000°15'1818.3
2017-Mar-26 11:33N 50°39' E 000°42'1717.4
2017-Mar-26 10:33N 50°50' E 001°03'1716.4
2017-Mar-26 09:31N 51°02' E 001°23'1717.5
2017-Mar-26 08:33N 51°12' E 001°43'1919.2
2017-Mar-26 07:34N 51°29' E 001°59'2020.1
2017-Mar-26 06:33N 51°43' E 002°21'2120.1
2017-Mar-26 05:32N 51°59' E 002°43'2219.1
2017-Mar-26 04:22N 52°16' E 003°05'1518.3
2017-Mar-26 03:31N 52°29' E 003°21'1717.8
2017-Mar-26 02:33N 52°42' E 003°38'1717.5
2017-Mar-26 01:34N 52°56' E 003°55'1818.2
2017-Mar-26 00:33N 53°08' E 004°19'1918.9
2017-Mar-25 23:34N 53°25' E 004°33'1919.4
2017-Mar-25 22:34N 53°43' E 004°43'1919.1
2017-Mar-25 21:34N 54°01' E 004°55'25917.3
2017-Mar-25 06:33N 57°39' E 009°03'1818.3
2017-Mar-25 05:33N 57°47' E 009°34'1817.8
2017-Mar-25 04:33N 57°53' E 010°06'1817.7
2017-Mar-25 03:33N 57°53' E 010°39'1717.3
2017-Mar-25 02:34N 57°40' E 011°01'1817.7
2017-Mar-25 01:34N 57°28' E 011°25'1818.0
2017-Mar-25 00:33N 57°11' E 011°36'1918.3
2017-Mar-24 23:30N 56°53' E 011°50'3916.6
2017-Mar-24 21:09N 56°22' E 011°09'813.2
2017-Mar-24 20:33N 56°14' E 011°06'1817.6
2017-Mar-24 19:31N 55°56' E 010°59'3113.8
2017-Mar-24 17:15N 55°25' E 010°60'1217.8
2017-Mar-24 16:33N 55°13' E 011°06'1716.8
2017-Mar-24 15:34N 54°57' E 010°55'1716.5
2017-Mar-24 14:33N 54°41' E 010°46'1615.9
2017-Mar-24 13:34N 54°36' E 011°12'1818.3
2017-Mar-24 12:34N 54°28' E 011°40'1817.3
2017-Mar-24 11:30N 54°27' E 012°12'1414.7
2017-Mar-24 10:33N 54°39' E 012°24'1312.2
2017-Mar-24 09:27N 54°47' E 012°44'1617.4
2017-Mar-24 08:32N 54°53' E 013°10'1818.5
2017-Mar-24 07:33N 54°59' E 013°39'1818.2
2017-Mar-24 06:33N 55°08' E 014°07'1918.6
2017-Mar-24 05:33N 55°22' E 014°28'1818.1
2017-Mar-24 04:33N 55°32' E 014°54'1818.4
2017-Mar-24 03:33N 55°40' E 015°24'1918.6
2017-Mar-24 02:33N 55°44' E 015°56'1918.7
2017-Mar-24 01:34N 55°48' E 016°28'1818.4
2017-Mar-24 00:33N 55°53' E 017°00'1818.4
2017-Mar-23 23:33N 55°57' E 017°32'83 1.9
2017-Mar-22 03:04N 55°11' E 019°33'1019.1
2017-Mar-22 02:33N 55°03' E 019°24'1919.1
2017-Mar-22 01:33N 54°48' E 019°04'1918.6
2017-Mar-22 00:33N 54°32' E 018°48'10 9.7
2017-Mar-21 23:33N 54°33' E 018°31'0 0.0
2017-Mar-21 22:31N 54°33' E 018°31'0 0.0
2017-Mar-21 21:31N 54°33' E 018°31'0 0.0
2017-Mar-21 20:31N 54°33' E 018°31'0 0.0
2017-Mar-21 19:31N 54°33' E 018°31'0 0.0
2017-Mar-21 18:31N 54°33' E 018°31'0 0.0
2017-Mar-21 17:31N 54°33' E 018°31'0 0.0
2017-Mar-21 16:31N 54°33' E 018°31'0 0.0
2017-Mar-21 15:31N 54°33' E 018°31'0 0.0
2017-Mar-21 14:31N 54°33' E 018°31'0 0.0
2017-Mar-21 13:31N 54°33' E 018°31'0 0.0
2017-Mar-21 12:31N 54°33' E 018°31'0 0.0
2017-Mar-21 11:31N 54°33' E 018°31'0 0.0
2017-Mar-21 10:31N 54°33' E 018°31'0 0.0
2017-Mar-21 09:31N 54°33' E 018°31'0 0.0
2017-Mar-21 08:31N 54°33' E 018°31'0 0.0
2017-Mar-21 07:31N 54°33' E 018°31'0 0.0
2017-Mar-21 06:31N 54°33' E 018°31'0 0.0
2017-Mar-21 05:31N 54°33' E 018°31'0 0.0
2017-Mar-21 04:31N 54°33' E 018°31'0 0.0
2017-Mar-21 03:31N 54°33' E 018°31'0 0.0
2017-Mar-21 02:31N 54°33' E 018°31'0 0.0
2017-Mar-21 01:31N 54°33' E 018°31'0 0.0
2017-Mar-21 00:31N 54°33' E 018°31'0 0.0
2017-Mar-20 23:31N 54°33' E 018°31'0 0.0
2017-Mar-20 22:31N 54°33' E 018°31'0 0.0
2017-Mar-20 21:31N 54°33' E 018°31'0 0.0
2017-Mar-20 20:31N 54°33' E 018°31'0 0.0
2017-Mar-20 19:31N 54°33' E 018°31'0 0.0
2017-Mar-20 18:31N 54°33' E 018°31'0 0.0
2017-Mar-20 17:31N 54°33' E 018°31'0 0.0
2017-Mar-20 16:31N 54°33' E 018°31'0 0.0
2017-Mar-20 15:31N 54°33' E 018°31'0 0.0
2017-Mar-20 14:31N 54°33' E 018°31'0 0.0
2017-Mar-20 13:31N 54°33' E 018°31'0 0.0
2017-Mar-20 12:31N 54°33' E 018°31'0 0.0
2017-Mar-20 11:31N 54°33' E 018°31'0 0.0
2017-Mar-20 10:28N 54°33' E 018°31'0 0.0
2017-Mar-20 09:31N 54°33' E 018°31'0 0.0
2017-Mar-20 08:31N 54°33' E 018°31'0 0.0
2017-Mar-20 07:31N 54°33' E 018°31'  

Dump ship's entire track history